Amunt
Inicio > meteoXarxa
Fes-te'n soci

METEOXARXA

Vistabella del Maestrat
Ubicació Sant Joan de Penyagolosa
Comarca l′Alcalatén
Altitud (msnm) 1285
Posició geogràfica 40° 15' 4.00" N, 00° 21' 21.00" W
Model Davis Vantage Pro2 calefactada
Presa de dades
Font de les dades AVAMET
Estadístiques. Resum
Data Temperatura (ºC) Humitat (%) Pressió (hPa) Vent (km/h) Precipit. (mm)
Mínima Mitjana Màxima Mínima Mitjana Màxima Mínima Mitjana Màxima Predom. Mitjana Ràfega màxima Total Dies de pluja
Mínima Mitjana Màxima Mínima Mitjana Màxima
Últimes dades diàries
24-02-2017 -0,7     5,3     9,4 E 4,2 29,0 3,2  
23-02-2017 3,2     9,8     13,5 WSW 6,4 30,6 0,2  
22-02-2017 -0,6     6,3     14,6 WSW 5,6 20,9 0,0  
21-02-2017 -3,9     2,9     12,8 SW 4,5 19,3 0,0  
20-02-2017 -4,3     1,1     8,4 SW 3,7 22,5 0,0  
19-02-2017 -1,8     3,0     7,1 E 5,3 29,0 0,0  
18-02-2017 -3,7     2,8     9,8 E 3,5 22,5 0,0  
17-02-2017 -2,6     3,0     9,7 SW 3,1 17,7 0,0  
16-02-2017 -1,8     3,6     6,9 E 2,3 17,7 0,0  
15-02-2017 -2,9     2,5     8,5 WSW 2,7 17,7 0,0  
14-02-2017 -2,2     2,7     9,1 SW 4,0 24,1 0,0  
13-02-2017 2,1     4,4     6,3 E 7,1 38,6 11,4  
12-02-2017 2,8     3,9     5,3 E 9,8 38,6 0,0  
11-02-2017 -1,6     1,7     3,5 E 6,3 30,6 1,0  
10-02-2017 -2,2     1,0     5,1 WSW 3,9 27,4 0,0  
09-02-2017 -1,3     1,8     8,3 WSW 8,4 41,8 0,0  
08-02-2017 -1,5     0,2     3,7 WSW 16,4 74,0 0,0  
07-02-2017 3,7     7,2     9,8 W 15,8 57,9 0,0  
06-02-2017 0,2     4,1     8,0 WSW 19,5 72,4 0,0  
05-02-2017 0,3     3,9     8,1 WSW 24,3 88,5 4,6  
04-02-2017 6,1     8,1     11,6 WSW 23,3 82,1 0,0  
03-02-2017 -0,9     4,9     8,2 WSW 19,5 64,4 0,0  
02-02-2017 0,3     5,2     7,4 WSW 14,5 53,1 1,2  
01-02-2017 -0,2     6,7     12,2 WSW 9,5 35,4 0,0  
31-01-2017 -0,4     4,6     11,7 WSW 4,8 27,4 0,4  
30-01-2017 1,2     4,7     9,6 WSW 4,2 27,4 0,0  
29-01-2017 -5,0     0,8     6,4 WSW 5,1 32,2 0,2  
28-01-2017 -0,3     1,7     3,5 W 10,9 51,5 10,6  
27-01-2017 -0,2     1,7     4,2 WSW 6,3 35,4 13,6  
26-01-2017 -5,8     -0,2     3,8 WSW 8,5 32,2 0,0  
25-01-2017 -2,1     2,4     5,7 WSW 8,7 33,8 0,2  
24-01-2017 -3,9     1,1     6,8 SW 4,2 35,4 1,8  
Dades del mes en curs (actualitzades fins l'últim dia disponible)
02/2017 -4,3 -0,6 6,1 4,0 3,5 8,6 14,6   9,3 88,5 21,6  
Últimes dades mensuals
01/2017 -13,8 -2,9 2,8 1,4 -2,3 5,9 15,2 7,5 72,4 37,6 10
12/2016 -6,2 -0,8 5,7 3,1 1,2 8,7 16,3 5,4 67,6 184,0 22
11/2016 -5,2 1,0 7,3 5,4 3,8 10,1 19,1 6,8 59,5 171,6 12
10/2016 2,2 6,6 10,7 11,2 9,7 16,7 22,3 4,9 41,8 41,4 23
09/2016 2,5 9,4 16,5 14,9 13,8 20,9 31,7 5,6 49,9 50,2 14
08/2016 6,2 11,0 16,4 17,8 17,6 24,2 29,2 5,8 37,0 28,0 13
07/2016 1,7 11,9 18,3 18,7 18,6 25,1 30,0 6,1 59,5 30,8 9
06/2016 2,4 8,9 15,8 15,5 15,2 21,7 27,7 6,3 45,1 46,8 9
05/2016 -4,6 4,4 9,6 10,2 8,0 15,4 21,4 7,0 53,1 81,4 13
04/2016 -3,6 1,7 5,3 6,7 5,2 11,6 16,6 7,6 59,5 53,8 13
03/2016 -7,2 -0,2 6,7 4,4 2,4 8,9 17,9 8,2 57,9 26,4 10
02/2016 -9,6 -0,8 8,9 4,0 0,4 9,1 15,2 9,7 85,3 19,0 9
01/2016 -5,1 0,5 8,7 4,9 1,6 9,4 14,3 9,1 83,7 3,0 10
Dades de l'any en curs (actualitzades fins l'últim dia disponible)
2017 -13,8 -1,9 6,1 2,5 -2,3 7,1 15,2   8,3 88,5 59,2  
Últimes dades anuals
2016 -9,6 4,5 18,3 9,7 0,4 15,2 31,7 6,9 85,3 736,4 157